createdAt,value
2016-11-12T00:00:50.710Z,21.3
2016-11-12T00:05:54.777Z,21.3
2016-11-12T00:10:58.859Z,21.3
2016-11-12T00:16:02.945Z,21.3
2016-11-12T00:21:07.027Z,21.3
2016-11-12T00:26:11.121Z,21.2
2016-11-12T00:31:15.543Z,21.2
2016-11-12T00:36:19.623Z,21.2
2016-11-12T00:41:23.720Z,21.2
2016-11-12T00:46:27.803Z,21.2
2016-11-12T00:51:31.887Z,21.2
2016-11-12T00:56:36.299Z,21.1
2016-11-12T01:01:40.711Z,21.1
2016-11-12T01:06:45.127Z,21.1
2016-11-12T01:11:49.555Z,21.1
2016-11-12T01:16:53.977Z,21.1
2016-11-12T01:21:58.060Z,21.1
2016-11-12T01:27:02.149Z,21.1
2016-11-12T01:32:06.240Z,21.1
2016-11-12T01:37:10.999Z,21.1
2016-11-12T01:42:15.085Z,21
2016-11-12T01:47:19.503Z,21
2016-11-12T01:52:23.924Z,21
2016-11-12T01:57:28.010Z,21
2016-11-12T02:02:32.090Z,21
2016-11-12T02:07:36.176Z,21
2016-11-12T02:12:40.254Z,21
2016-11-12T02:17:44.672Z,21
2016-11-12T02:22:49.087Z,21
2016-11-12T02:27:53.164Z,21
2016-11-12T02:32:57.914Z,20.9
2016-11-12T02:38:01.999Z,20.9
2016-11-12T02:43:06.085Z,20.9
2016-11-12T02:48:10.163Z,20.9
2016-11-12T02:53:14.912Z,20.9
2016-11-12T02:58:18.986Z,20.9
2016-11-12T03:03:23.408Z,20.9
2016-11-12T03:08:27.828Z,20.9
2016-11-12T03:13:32.248Z,20.8
2016-11-12T03:18:36.662Z,20.8
2016-11-12T03:23:41.089Z,20.8
2016-11-12T03:28:45.170Z,20.8
2016-11-12T03:33:49.612Z,20.8
2016-11-12T03:38:53.997Z,20.8
2016-11-12T03:43:58.407Z,20.8
2016-11-12T03:49:02.829Z,20.8
2016-11-12T03:54:07.245Z,20.8
2016-11-12T03:59:11.344Z,20.8
2016-11-12T04:04:15.766Z,20.9
2016-11-12T04:09:20.176Z,20.9
2016-11-12T04:14:24.595Z,20.9
2016-11-12T04:19:28.678Z,20.9
2016-11-12T04:24:33.092Z,20.9
2016-11-12T04:29:37.500Z,20.9
2016-11-12T04:34:41.577Z,20.9
2016-11-12T04:39:45.989Z,20.9
2016-11-12T04:44:50.407Z,20.9
2016-11-12T04:49:54.822Z,20.9
2016-11-12T04:54:58.900Z,20.9
2016-11-12T05:00:02.991Z,20.8
2016-11-12T05:05:07.089Z,20.8
2016-11-12T05:10:11.505Z,20.8
2016-11-12T05:15:15.584Z,20.8
2016-11-12T05:20:19.999Z,20.8
2016-11-12T05:25:24.082Z,20.8
2016-11-12T05:30:28.162Z,20.8
2016-11-12T05:35:32.250Z,20.8
2016-11-12T05:40:36.330Z,20.8
2016-11-12T05:45:40.751Z,20.8
2016-11-12T05:50:44.826Z,20.8
2016-11-12T05:55:49.576Z,20.8
2016-11-12T06:00:53.658Z,20.8
2016-11-12T06:05:58.069Z,20.8
2016-11-12T06:11:02.155Z,20.8
2016-11-12T06:16:06.236Z,20.8
2016-11-12T06:21:10.651Z,20.8
2016-11-12T06:26:15.066Z,20.8
2016-11-12T06:31:19.173Z,20.7
2016-11-12T06:36:23.260Z,20.7
2016-11-12T06:41:27.358Z,20.7
2016-11-12T06:46:31.783Z,20.7
2016-11-12T06:51:35.868Z,20.8
2016-11-12T06:56:39.955Z,20.8
2016-11-12T07:01:44.364Z,20.9
2016-11-12T07:06:48.449Z,21
2016-11-12T07:11:52.526Z,21
2016-11-12T07:16:57.285Z,21.1
2016-11-12T07:22:01.398Z,21.2
2016-11-12T07:27:05.834Z,21.3
2016-11-12T07:32:09.945Z,21.3
2016-11-12T07:37:14.698Z,21.3
2016-11-12T07:42:18.781Z,21.4
2016-11-12T07:47:23.542Z,21.4
2016-11-12T07:52:28.634Z,21.4
2016-11-12T07:57:33.049Z,21.4
2016-11-12T08:02:38.477Z,21.3
2016-11-12T08:07:42.559Z,21.3
2016-11-12T08:12:47.309Z,21.3
2016-11-12T08:17:51.405Z,21.3
2016-11-12T08:22:55.497Z,21.3
2016-11-12T08:27:59.590Z,21.3
2016-11-12T08:33:03.675Z,21.3
2016-11-12T08:38:08.090Z,21.3
2016-11-12T08:43:12.173Z,21.2
2016-11-12T08:48:16.255Z,21.2
2016-11-12T08:53:20.341Z,21.2
2016-11-12T08:58:24.426Z,21.2
2016-11-12T09:03:28.512Z,21.2
2016-11-12T09:08:33.677Z,21.2
2016-11-12T09:13:37.763Z,21.2
2016-11-12T09:18:41.944Z,21.2
2016-11-12T09:23:46.399Z,21.2
2016-11-12T09:28:50.485Z,21.2
2016-11-12T09:33:54.593Z,21.2
2016-11-12T09:38:59.344Z,21.2
2016-11-12T09:44:03.431Z,21.2
2016-11-12T09:49:07.514Z,21.3
2016-11-12T09:54:11.607Z,21.3
2016-11-12T09:59:15.713Z,21.3
2016-11-12T10:04:19.804Z,21.3
2016-11-12T10:09:24.457Z,21.3
2016-11-12T10:14:28.553Z,21.3
2016-11-12T10:19:32.978Z,21.4
2016-11-12T10:24:37.398Z,21.4
2016-11-12T10:29:41.900Z,21.5
2016-11-12T10:34:46.058Z,21.5
2016-11-12T10:39:50.153Z,21.5
2016-11-12T10:44:54.580Z,21.5
2016-11-12T10:49:58.673Z,21.6
2016-11-12T10:55:02.754Z,21.6
2016-11-12T11:00:06.845Z,21.6
2016-11-12T11:05:11.267Z,21.6
2016-11-12T11:10:15.685Z,21.6
2016-11-12T11:15:19.784Z,21.7
2016-11-12T11:20:23.865Z,21.7
2016-11-12T11:25:29.061Z,21.7
2016-11-12T11:30:33.490Z,21.7
2016-11-12T11:35:37.573Z,21.7
2016-11-12T11:40:41.998Z,21.7
2016-11-12T11:45:46.425Z,21.7
2016-11-12T11:50:50.507Z,21.8
2016-11-12T11:55:54.588Z,21.8
2016-11-12T12:00:59.230Z,21.8
2016-11-12T12:06:03.321Z,21.8
2016-11-12T12:11:07.408Z,21.8
2016-11-12T12:16:11.505Z,21.7
2016-11-12T12:21:15.600Z,21.7
2016-11-12T12:26:19.692Z,21.7
2016-11-12T12:31:24.803Z,21.6
2016-11-12T12:36:29.252Z,21.6
2016-11-12T12:41:33.675Z,21.6
2016-11-12T12:46:38.428Z,21.6
2016-11-12T12:51:42.848Z,21.6
2016-11-12T12:56:47.278Z,21.6
2016-11-12T13:01:51.703Z,21.6
2016-11-12T13:06:55.783Z,21.6
2016-11-12T13:12:00.222Z,21.5
2016-11-12T13:17:04.649Z,21.6
2016-11-12T13:22:08.733Z,21.6
2016-11-12T13:27:13.180Z,21.6
2016-11-12T13:32:17.620Z,21.6
2016-11-12T13:37:22.049Z,21.6
2016-11-12T13:42:26.472Z,21.6
2016-11-12T13:47:30.553Z,21.5
2016-11-12T13:52:34.638Z,21.6
2016-11-12T13:57:39.081Z,21.5
2016-11-12T14:02:43.171Z,21.6
2016-11-12T14:07:47.593Z,21.6
2016-11-12T14:12:52.012Z,21.6
2016-11-12T14:17:56.443Z,21.6
2016-11-12T14:23:01.539Z,21.6
2016-11-12T14:28:05.970Z,21.6
2016-11-12T14:33:10.068Z,21.6
2016-11-12T14:38:14.375Z,21.6
2016-11-12T14:43:18.459Z,21.6
2016-11-12T14:48:22.544Z,21.5
2016-11-12T14:53:26.635Z,21.5
2016-11-12T14:58:30.726Z,21.5
2016-11-12T15:03:35.148Z,21.5
2016-11-12T15:08:39.908Z,21.6
2016-11-12T15:13:44.164Z,21.6
2016-11-12T15:18:48.248Z,21.6
2016-11-12T15:23:52.676Z,21.6
2016-11-12T15:28:57.434Z,21.6
2016-11-12T15:34:01.527Z,21.6
2016-11-12T15:39:05.982Z,21.6
2016-11-12T15:44:10.064Z,21.6
2016-11-12T15:49:14.156Z,21.5
2016-11-12T15:54:18.776Z,21.5
2016-11-12T15:59:23.202Z,21.5
2016-11-12T16:04:27.282Z,21.4
2016-11-12T16:09:31.698Z,21.4
2016-11-12T16:14:35.777Z,21.3
2016-11-12T16:19:39.861Z,21.3
2016-11-12T16:24:44.276Z,21.3
2016-11-12T16:29:48.368Z,21.3
2016-11-12T16:34:52.480Z,21.3
2016-11-12T16:39:56.554Z,21.3
2016-11-12T16:45:00.968Z,21.3
2016-11-12T16:50:05.053Z,21.2
2016-11-12T16:55:09.472Z,21.2
2016-11-12T17:00:13.883Z,21.2
2016-11-12T17:05:18.315Z,21.2
2016-11-12T17:10:22.397Z,21.2
2016-11-12T17:15:26.473Z,21.2
2016-11-12T17:20:30.556Z,21.1
2016-11-12T17:25:34.645Z,21.1
2016-11-12T17:30:39.067Z,21.1
2016-11-12T17:35:43.149Z,21.1
2016-11-12T17:40:47.233Z,21.1
2016-11-12T17:45:52.013Z,21.1
2016-11-12T17:50:56.771Z,21.1
2016-11-12T17:56:00.861Z,21.2
2016-11-12T18:01:05.706Z,21.3
2016-11-12T18:06:10.120Z,21.3
2016-11-12T18:11:14.553Z,21.3
2016-11-12T18:16:19.309Z,21.2
2016-11-12T18:21:23.724Z,21.2
2016-11-12T18:26:27.811Z,21.2
2016-11-12T18:31:31.884Z,21.2
2016-11-12T18:36:36.644Z,21.2
2016-11-12T18:41:41.394Z,21.2
2016-11-12T18:46:45.805Z,21.2
2016-11-12T18:51:50.561Z,21.2
2016-11-12T18:56:54.657Z,21.2
2016-11-12T19:01:58.736Z,21.2
2016-11-12T19:07:03.153Z,21.3
2016-11-12T19:12:07.242Z,21.3
2016-11-12T19:17:11.658Z,21.3
2016-11-12T19:22:15.741Z,21.3
2016-11-12T19:27:20.491Z,21.4
2016-11-12T19:32:24.913Z,21.4
2016-11-12T19:37:29.000Z,21.4
2016-11-12T19:42:33.093Z,21.4
2016-11-12T19:47:37.179Z,21.4
2016-11-12T19:52:41.263Z,21.4
2016-11-12T19:57:45.678Z,21.4
2016-11-12T20:02:50.435Z,21.4
2016-11-12T20:07:54.517Z,21.4
2016-11-12T20:12:58.927Z,21.4
2016-11-12T20:18:03.013Z,21.3
2016-11-12T20:23:07.100Z,21.3
2016-11-12T20:28:11.180Z,21.3
2016-11-12T20:33:16.216Z,21.3
2016-11-12T20:38:20.302Z,21.3
2016-11-12T20:43:24.387Z,21.3
2016-11-12T20:48:28.467Z,21.3
2016-11-12T20:53:32.556Z,21.3
2016-11-12T20:58:36.972Z,21.3
2016-11-12T21:03:41.052Z,21.3
2016-11-12T21:08:45.836Z,21.4
2016-11-12T21:13:49.929Z,21.3
2016-11-12T21:18:54.359Z,21.3
2016-11-12T21:23:58.448Z,21.3
2016-11-12T21:29:02.727Z,21.3
2016-11-12T21:34:07.477Z,21.2
2016-11-12T21:39:11.560Z,21.2
2016-11-12T21:44:15.971Z,21.1
2016-11-12T21:49:20.719Z,21.1
2016-11-12T21:54:25.134Z,21.1
2016-11-12T21:59:29.548Z,21.1
2016-11-12T22:04:33.960Z,21.1
2016-11-12T22:09:38.377Z,21.1
2016-11-12T22:14:42.797Z,21
2016-11-12T22:19:47.552Z,21
2016-11-12T22:24:51.717Z,21
2016-11-12T22:29:55.810Z,21
2016-11-12T22:34:59.897Z,21
2016-11-12T22:40:04.649Z,21
2016-11-12T22:45:08.732Z,21
2016-11-12T22:50:13.229Z,21
2016-11-12T22:55:17.305Z,20.9
2016-11-12T23:00:21.390Z,20.9
2016-11-12T23:05:25.817Z,20.9
2016-11-12T23:10:29.907Z,20.9
2016-11-12T23:15:34.334Z,20.9
2016-11-12T23:20:38.426Z,20.8
2016-11-12T23:25:42.513Z,20.8
2016-11-12T23:30:46.594Z,20.8
2016-11-12T23:35:51.008Z,20.8
2016-11-12T23:40:55.769Z,20.8
2016-11-12T23:46:00.189Z,20.8
2016-11-12T23:51:04.942Z,20.8
2016-11-12T23:56:09.033Z,20.8
